AirNav   Pilot Hours Calculator
 
 1103 users online  

39TS Hearthstone Heliport
Houston, Texas, USA

GOING TO HOUSTON?


FAA INFORMATION EFFECTIVE 22 APRIL 2021

Location

FAA Identifier: 39TS
Lat/Long: 29-52-46.8110N 095-37-50.8010W
29-52.780183N 095-37.846683W
29.8796697,-95.6307781
(estimated)
Elevation: 125 ft. / 38 m (estimated)
Variation: 06E (1980)
Time zone: UTC -5 (UTC -6 during Standard Time)
Zip code: 77095

Heliport Operations

Heliport use: Private use. Permission required prior to landing
Activation date: 11/1986
Control tower: no
ARTCC: HOUSTON CENTER
FSS: MONTGOMERY COUNTY FLIGHT SERVICE STATION
Attendance: UNATNDD
Segmented circle: no

Heliport Communications

WX ASOS at DWH (12 nm N): PHONE 281-251-7853
WX AWOS-3 at TME (15 nm W): 119.525 (281-945-5451)
WX ASOS at SGR (16 nm S): 118.125 (281-242-7605)
WX ASOS at IAH (16 nm NE): PHONE 281-443-6397

Nearby radio navigation aids

VOR radial/distance  VOR name  Freq  Var
IAHr248/15.5HUMBLE VORTAC116.6005E
TNVr130/33.1NAVASOTA VOR/DME115.9008E
ELAr062/38.0EAGLE LAKE VOR/DME116.4008E

Heliport Services

Runway Information

Helipad H1

Dimensions: 50 x 50 ft. / 15 x 15 m
Surface: turf
Traffic pattern: leftleft

Heliport Ownership and Management from official FAA records

Ownership: Privately-owned
Owner: CRITERION DEVELOPMENT
11301 FALLBROOK NO. 330
HOUSTON, TX 77065
Phone 713-955-9700
Manager: BILL MEHAFFEY
11301 FALLBROOK NO. 330
HOUSTON, TX 77065
Phone 713-955-9700

Additional Remarks

FOR CD CTC HOUSTON ARTCC AT 281-230-5622.

Instrument Procedures

There are no published instrument procedures at 39TS.

Some nearby airports with instrument procedures:

KIWS - West Houston Airport (4 nm SW)
KDWH - David Wayne Hooks Memorial Airport (12 nm N)
KTME - Houston Executive Airport (15 nm W)
KSGR - Sugar Land Regional Airport (16 nm S)
KIAH - George Bush Intcntl/Houston Airport (16 nm NE)
 
Loc | Ops | Rwys | IFR | FBO | Links
Com | Nav | Svcs | Stats | Notes
Area around 39TS (Hearthstone Heliport)
 
Road maps at: MapQuest Bing Google
 
Aerial photo
No photo
 
Sectional chart

 
Airport distance calculator
Flying to Hearthstone Heliport? Find the distance to fly.

From to 39TS

Sunrise and sunset
Times for 22-Apr-2021
 Local
(UTC-5)
 Zulu
(UTC)
Morning civil twilight06:2511:25
Sunrise06:4911:49
Sunset19:5300:53
Evening civil twilight20:1801:18

Current date and time
Zulu (UTC)  23-Apr-2021 00:29:33
Local (UTC-5)  22-Apr-2021 19:29:33
 
METAR
KDWH 
12nm N 
222353Z 11011G17KT 10SM OVC027 19/13 A2998 RMK AO2 SLP152 T01940133 10222 20194 56014
KTME 
15nm W 
230015Z AUTO 13012G17KT 9SM BKN021 BKN030 OVC049 19/15 A3000 RMK AO2
KIAH 
16nm NE 
222353Z 13015G20KT 10SM BKN025 OVC040 19/14 A3000 RMK AO2 SLP157 T01940139 10244 20194 56012
KSGR 
16nm S 
230011Z 11010KT 10SM FEW020 BKN027 OVC031 20/16 A2998 RMK AO2 T02000156
KHOU 
23nm SE 
222353Z 10014KT 10SM FEW019 OVC025 20/15 A2999 RMK AO2 SLP160 T02000150 10239 20200 56015
KAXH 
24nm S 
230015Z AUTO 11007KT 10SM OVC018 19/16 A3000 RMK AO2 T01910159
TAF
KIAH 
16nm NE 
222040Z 2221/2324 12012KT P6SM BKN040 OVC060 TEMPO 2221/2224 BKN030 OVC040 FM230000 12012KT P6SM BKN028 OVC045 FM230700 14010KT P6SM VCSH OVC016 FM231300 15011KT P6SM VCSH OVC010 FM231800 15012G23KT P6SM -SHRA VCTS BKN012 OVC020CB
KSGR 
16nm S 
222038Z 2221/2318 11012G18KT P6SM BKN035 OVC090 TEMPO 2222/2302 BKN028 OVC045 FM230200 11013KT P6SM OVC025 FM230700 12012KT P6SM VCSH OVC016 FM231300 14010G17KT P6SM VCSH OVC010 FM231700 16012G23KT P6SM -SHRA BKN013 OVC020
NOTAMs
Click for the latest NOTAMs
NOTAMs are issued by the DoD/FAA and will open in a separate window not controlled by AirNav.

 

 
 

Would you like to see your business listed on this page?

 If your business provides an interesting product or service to pilots, flight crews, aircraft, or users of the Hearthstone Heliport, you should consider listing it here.  To start the listing process, click on the button below
 
Add a business
 

Other Pages about Hearthstone Heliport

Update a link
 
Copyright © AirNav, LLC. All rights reserved. Privacy Policy  Contact